Time;durP1;ratioP1;P1;durP2;ratioP2;P2;SDS_P1;SDS_P2;PMS_P1;PMS_P2;Temp;Humidity;BMP_temperature;BMP_pressure;BME280_temperature;BME280_humidity;BME280_pressure;Samples;Min_cycle;Max_cycle;Signal;HPM_P1;HPM_P2
2022/10/04 00:02:19;;;;;;;0.00;0.00;;;17.70;86.60;;;;;;4079700;29;20055;-64
2022/10/04 00:05:04;;;;;;;0.00;0.00;;;17.60;86.50;;;;;;4097219;28;20054;-63
2022/10/04 00:07:49;;;;;;;0.00;0.00;;;17.60;86.60;;;;;;4111330;28;20053;-63
2022/10/04 00:10:33;;;;;;;0.10;0.10;;;17.60;86.60;;;;;;4104599;28;20218;-63
2022/10/04 00:13:23;;;;;;;0.00;0.00;;;17.60;86.60;;;;;;4094682;28;20511;-64
2022/10/04 00:16:06;;;;;;;0.00;0.00;;;17.60;86.70;;;;;;4094996;28;20407;-64
2022/10/04 00:18:47;;;;;;;0.00;0.00;;;17.60;86.70;;;;;;4095294;28;20426;-64
2022/10/04 00:22:09;;;;;;;1.83;0.52;;;17.60;86.70;;;;;;4082323;28;20046;-64
2022/10/04 00:25:19;;;;;;;0.00;0.00;;;17.60;86.90;;;;;;4055211;28;1154485;-64
2022/10/04 00:28:39;;;;;;;0.00;0.00;;;17.60;86.80;;;;;;4095688;28;20062;-64
2022/10/04 00:31:24;;;;;;;0.95;0.90;;;17.60;86.80;;;;;;4095672;28;20137;-64
2022/10/04 00:34:38;;;;;;;0.70;0.70;;;17.60;86.80;;;;;;4097704;28;20057;-63
2022/10/04 00:37:20;;;;;;;0.00;0.00;;;17.60;86.90;;;;;;4111604;28;20101;-63
2022/10/04 00:40:11;;;;;;;0.00;0.00;;;17.60;86.90;;;;;;4111637;28;20054;-63
2022/10/04 00:42:58;;;;;;;0.00;0.00;;;17.60;87.00;;;;;;4091319;28;20054;-63
2022/10/04 00:45:43;;;;;;;0.00;0.00;;;17.60;87.10;;;;;;4095872;28;20150;-63
2022/10/04 00:48:48;;;;;;;0.00;0.00;;;17.60;87.10;;;;;;4095673;28;20062;-63
2022/10/04 00:51:33;;;;;;;0.00;0.00;;;17.60;87.10;;;;;;4095194;28;20062;-63
2022/10/04 00:54:19;;;;;;;0.00;0.00;;;17.60;87.20;;;;;;4095546;28;20112;-63
2022/10/04 00:57:05;;;;;;;0.00;0.00;;;17.60;87.20;;;;;;4095044;28;20174;-68
2022/10/04 00:59:49;;;;;;;0.00;0.00;;;17.50;87.20;;;;;;4095394;28;20126;-63
2022/10/04 01:02:35;;;;;;;0.20;0.20;;;17.50;87.20;;;;;;4095221;28;20632;-68
2022/10/04 01:05:20;;;;;;;0.20;0.20;;;17.60;87.30;;;;;;4106182;28;20058;-65
2022/10/04 01:08:08;;;;;;;0.00;0.00;;;17.50;87.30;;;;;;4079126;29;20050;-63
2022/10/04 01:10:53;;;;;;;0.55;0.32;;;17.50;87.30;;;;;;4078995;29;20484;-63
2022/10/04 01:13:40;;;;;;;0.00;0.00;;;17.50;87.30;;;;;;4079737;29;20147;-63
2022/10/04 01:16:24;;;;;;;0.00;0.00;;;17.50;87.40;;;;;;4088728;28;20387;-63
2022/10/04 01:19:28;;;;;;;0.10;0.10;;;17.50;87.40;;;;;;4095105;28;20513;-63
2022/10/04 01:22:14;;;;;;;0.00;0.00;;;17.50;87.30;;;;;;4095204;28;20058;-63
2022/10/04 01:24:57;;;;;;;0.08;0.08;;;17.50;87.40;;;;;;4094822;28;20057;-63
2022/10/04 01:27:42;;;;;;;0.00;0.00;;;17.50;87.40;;;;;;4079075;29;20195;-63
2022/10/04 01:30:23;;;;;;;0.00;0.00;;;17.50;87.40;;;;;;4079164;29;20112;-63
2022/10/04 01:33:05;;;;;;;2.30;1.75;;;17.50;87.40;;;;;;4079205;29;20515;-63
2022/10/04 01:35:47;;;;;;;0.00;0.00;;;17.50;87.40;;;;;;4103941;28;20082;-64
2022/10/04 01:38:28;;;;;;;1.35;0.98;;;17.50;87.40;;;;;;4083188;28;20053;-63
2022/10/04 01:41:14;;;;;;;0.00;0.00;;;17.50;87.50;;;;;;4082631;28;20412;-63
2022/10/04 01:44:00;;;;;;;0.10;0.10;;;17.50;87.50;;;;;;4094755;28;20058;-63
2022/10/04 01:46:41;;;;;;;7.90;1.55;;;17.50;87.40;;;;;;4094731;28;20439;-64
2022/10/04 01:49:28;;;;;;;0.43;0.35;;;17.50;87.40;;;;;;4094703;28;20058;-63
2022/10/04 01:52:15;;;;;;;0.25;0.25;;;17.50;87.50;;;;;;4094234;28;20058;-63
2022/10/04 01:55:02;;;;;;;0.10;0.10;;;17.50;87.50;;;;;;4094774;28;20054;-63
2022/10/04 01:57:48;;;;;;;0.00;0.00;;;17.40;87.30;;;;;;4094624;28;20145;-63
2022/10/04 02:00:31;;;;;;;0.00;0.00;;;17.40;87.40;;;;;;4094723;28;20066;-63
2022/10/04 02:03:18;;;;;;;0.95;0.95;;;17.40;87.40;;;;;;4094636;28;20113;-64
2022/10/04 02:06:02;;;;;;;0.00;0.00;;;17.40;87.40;;;;;;4084725;28;20054;-63
2022/10/04 02:08:49;;;;;;;0.30;0.30;;;17.40;87.40;;;;;;4094762;28;20062;-64
2022/10/04 02:11:30;;;;;;;0.30;0.30;;;17.40;87.50;;;;;;4094334;28;20471;-64
2022/10/04 02:14:17;;;;;;;0.00;0.00;;;17.40;87.70;;;;;;4094311;28;20058;-63
2022/10/04 02:17:01;;;;;;;0.00;0.00;;;17.40;87.90;;;;;;4094071;28;20054;-63
2022/10/04 02:19:43;;;;;;;0.22;0.22;;;17.40;88.00;;;;;;4082915;28;20796;-64
2022/10/04 02:22:26;;;;;;;1.60;1.13;;;17.40;87.70;;;;;;4093790;28;20149;-63
2022/10/04 02:25:08;;;;;;;1.20;1.20;;;17.40;88.00;;;;;;4094064;28;20058;-63
2022/10/04 02:27:53;;;;;;;0.00;0.00;;;17.40;88.00;;;;;;4082580;28;20054;-63
2022/10/04 02:30:38;;;;;;;0.63;0.63;;;17.40;88.00;;;;;;4094425;28;20058;-63
2022/10/04 02:33:18;;;;;;;0.17;0.17;;;17.50;88.00;;;;;;4093996;28;20066;-63
2022/10/04 02:36:01;;;;;;;0.00;0.00;;;17.40;88.00;;;;;;4094356;28;20066;-63
2022/10/04 02:38:47;;;;;;;2.08;1.45;;;17.40;88.00;;;;;;4082450;28;20050;-63
2022/10/04 02:41:32;;;;;;;0.00;0.00;;;17.40;88.10;;;;;;4078296;29;20501;-66
2022/10/04 02:44:18;;;;;;;0.63;0.63;;;17.40;88.00;;;;;;4080469;28;20113;-66
2022/10/04 02:47:08;;;;;;;0.00;0.00;;;17.40;88.00;;;;;;4094239;28;20109;-66
2022/10/04 02:49:52;;;;;;;1.23;1.23;;;17.40;88.00;;;;;;4094519;28;20132;-66
2022/10/04 02:52:38;;;;;;;0.00;0.00;;;17.40;88.00;;;;;;4094111;28;20097;-66
2022/10/04 02:55:23;;;;;;;0.10;0.10;;;17.40;88.00;;;;;;4093515;28;20468;-66
2022/10/04 02:58:11;;;;;;;0.00;0.00;;;17.40;88.00;;;;;;4093642;28;20049;-66
2022/10/04 03:00:55;;;;;;;0.08;0.08;;;17.40;88.00;;;;;;4078373;29;20059;-66
2022/10/04 03:03:40;;;;;;;0.00;0.00;;;17.40;88.00;;;;;;4091416;28;20420;-66
2022/10/04 03:06:25;;;;;;;0.90;0.90;;;17.40;88.00;;;;;;4081699;29;20055;-66
2022/10/04 03:09:06;;;;;;;0.00;0.00;;;17.40;88.00;;;;;;4081375;29;20077;-66
2022/10/04 03:11:49;;;;;;;0.00;0.00;;;17.40;88.00;;;;;;4082511;28;20102;-66
2022/10/04 03:14:32;;;;;;;0.00;0.00;;;17.40;88.00;;;;;;4096841;28;20053;-66
2022/10/04 03:17:16;;;;;;;0.10;0.10;;;17.40;88.00;;;;;;4097026;28;20062;-66
2022/10/04 03:19:59;;;;;;;0.08;0.08;;;17.40;88.90;;;;;;4097207;28;20500;-66
2022/10/04 03:22:41;;;;;;;6.72;1.90;;;17.30;87.90;;;;;;4096829;28;20198;-66
2022/10/04 03:25:30;;;;;;;0.00;0.00;;;17.30;87.90;;;;;;4096686;28;20192;-66
2022/10/04 03:28:11;;;;;;;0.00;0.00;;;17.30;87.90;;;;;;4096913;28;20479;-66
2022/10/04 03:30:52;;;;;;;0.55;0.47;;;17.30;87.90;;;;;;4097340;28;20065;-66
2022/10/04 03:33:33;;;;;;;0.00;0.00;;;17.30;88.00;;;;;;4096332;28;20073;-66
2022/10/04 03:36:18;;;;;;;0.00;0.00;;;17.30;88.00;;;;;;4096925;28;20053;-66
2022/10/04 03:38:59;;;;;;;0.10;0.10;;;17.30;88.10;;;;;;4096641;28;20062;-66
2022/10/04 03:41:40;;;;;;;;;;;17.30;88.10;;;;;;4097410;28;20058;-66
2022/10/04 03:44:25;;;;;;;1.65;0.47;;;17.30;88.10;;;;;;4097014;28;19993;-66
2022/10/04 03:47:09;;;;;;;0.00;0.00;;;17.30;88.20;;;;;;4084380;28;20416;-66
2022/10/04 03:49:53;;;;;;;0.00;0.00;;;17.30;88.20;;;;;;4084593;28;20053;-66
2022/10/04 03:52:37;;;;;;;0.15;0.15;;;17.30;88.20;;;;;;4096236;28;20065;-66
2022/10/04 03:55:19;;;;;;;0.00;0.00;;;17.30;88.20;;;;;;4080517;29;20385;-66
2022/10/04 03:58:02;;;;;;;0.00;0.00;;;17.30;88.30;;;;;;4080814;29;20187;-66
2022/10/04 04:00:52;;;;;;;0.10;0.10;;;17.30;88.40;;;;;;4089225;28;20061;-66
2022/10/04 04:03:42;;;;;;;0.00;0.00;;;17.30;88.50;;;;;;4096417;28;20066;-66
2022/10/04 04:06:24;;;;;;;0.00;0.00;;;17.30;88.40;;;;;;4096187;28;20678;-66
2022/10/04 04:09:07;;;;;;;0.00;0.00;;;17.30;88.30;;;;;;4096107;28;20511;-66
2022/10/04 04:11:50;;;;;;;0.00;0.00;;;17.30;88.40;;;;;;4080754;29;20202;-66
2022/10/04 04:14:31;;;;;;;0.10;0.10;;;17.30;88.30;;;;;;4094128;28;20057;-66
2022/10/04 04:17:37;;;;;;;0.08;0.08;;;17.30;88.40;;;;;;4096196;28;20054;-66
2022/10/04 04:20:25;;;;;;;0.20;0.20;;;17.30;88.20;;;;;;4096366;28;20062;-66
2022/10/04 04:23:21;;;;;;;0.00;0.00;;;17.30;88.30;;;;;;4095658;28;20097;-66
2022/10/04 04:26:18;;;;;;;0.00;0.00;;;17.20;88.30;;;;;;4095430;28;20058;-67
2022/10/04 04:29:05;;;;;;;0.38;0.38;;;17.20;88.30;;;;;;4095808;28;20054;-66
2022/10/04 04:31:51;;;;;;;0.08;0.08;;;17.20;88.30;;;;;;4095846;28;20054;-66
2022/10/04 04:34:34;;;;;;;0.00;0.00;;;17.30;88.30;;;;;;4100732;28;20077;-66
2022/10/04 04:37:15;;;;;;;0.00;0.00;;;17.20;88.20;;;;;;4111581;28;20131;-65
2022/10/04 04:39:56;;;;;;;0.00;0.00;;;17.20;89.00;;;;;;4111802;28;20058;-66
2022/10/04 04:42:39;;;;;;;0.00;0.00;;;17.20;88.20;;;;;;4082920;28;20070;-66
2022/10/04 04:45:24;;;;;;;0.00;0.00;;;17.20;88.30;;;;;;4095738;28;20412;-65
2022/10/04 04:48:06;;;;;;;0.00;0.00;;;17.20;88.40;;;;;;4095262;28;20045;-66
2022/10/04 04:50:52;;;;;;;0.00;0.00;;;17.20;88.20;;;;;;4095431;28;20046;-66
2022/10/04 04:53:33;;;;;;;0.00;0.00;;;17.20;88.30;;;;;;4095601;28;20054;-66
2022/10/04 04:56:18;;;;;;;0.00;0.00;;;17.20;88.40;;;;;;4095444;28;20408;-66
2022/10/04 04:59:06;;;;;;;0.10;0.10;;;17.20;88.30;;;;;;4095845;28;20054;-66
2022/10/04 05:01:49;;;;;;;0.00;0.00;;;17.20;88.30;;;;;;4087445;28;20491;-65
2022/10/04 05:04:30;;;;;;;0.00;0.00;;;17.20;88.60;;;;;;4088463;28;20165;-66
2022/10/04 05:07:18;;;;;;;0.00;0.00;;;17.20;88.60;;;;;;4099246;28;20058;-65
2022/10/04 05:09:59;;;;;;;0.00;0.00;;;17.20;88.60;;;;;;4073989;28;20197;-66
2022/10/04 05:12:40;;;;;;;0.00;0.00;;;17.20;88.60;;;;;;4084984;28;20396;-65
2022/10/04 05:15:23;;;;;;;0.55;0.55;;;17.20;88.40;;;;;;4094180;28;20054;-66
2022/10/04 05:18:16;;;;;;;0.30;0.30;;;17.20;88.40;;;;;;4072276;28;20050;-66
2022/10/04 05:21:05;;;;;;;0.00;0.00;;;17.20;88.40;;;;;;4095279;28;20087;-66
2022/10/04 05:23:47;;;;;;;0.70;0.70;;;17.20;88.30;;;;;;4094285;28;20183;-66
2022/10/04 05:26:30;;;;;;;2.28;0.70;;;17.20;88.40;;;;;;4095135;28;20411;-64
2022/10/04 05:29:17;;;;;;;0.00;0.00;;;17.20;88.40;;;;;;4079651;29;20051;-63
2022/10/04 05:32:08;;;;;;;0.08;0.08;;;17.20;88.50;;;;;;4079507;29;20066;-63
2022/10/04 05:34:50;;;;;;;0.00;0.00;;;17.20;88.50;;;;;;4093303;28;20070;-63
2022/10/04 05:37:52;;;;;;;0.00;0.00;;;17.10;88.50;;;;;;4110839;28;20057;-63
2022/10/04 05:40:43;;;;;;;0.38;0.38;;;17.20;88.40;;;;;;4099199;28;20063;-63
2022/10/04 05:43:31;;;;;;;0.05;0.05;;;17.10;88.30;;;;;;4097827;28;20133;-65
2022/10/04 05:46:19;;;;;;;0.00;0.00;;;17.10;88.40;;;;;;4094939;28;20178;-63
2022/10/04 05:49:08;;;;;;;1.00;1.00;;;17.10;88.40;;;;;;4094742;28;20058;-63
2022/10/04 05:51:52;;;;;;;0.00;0.00;;;17.10;88.60;;;;;;4094846;28;20053;-62
2022/10/04 05:54:35;;;;;;;0.00;0.00;;;17.10;88.90;;;;;;4084477;28;20074;-64
2022/10/04 05:57:34;;;;;;;0.10;0.10;;;17.20;89.00;;;;;;4094778;28;20054;-63
2022/10/04 06:00:17;;;;;;;0.00;0.00;;;17.20;90.10;;;;;;4089949;28;20057;-63
2022/10/04 06:03:17;;;;;;;0.00;0.00;;;17.20;89.10;;;;;;4101845;28;20046;-63
2022/10/04 06:06:05;;;;;;;0.00;0.00;;;17.30;88.90;;;;;;4094232;28;20066;-65
2022/10/04 06:09:07;;;;;;;0.10;0.10;;;17.30;88.70;;;;;;4082583;28;20172;-65
2022/10/04 06:12:01;;;;;;;0.00;0.00;;;17.20;88.40;;;;;;4084541;28;20488;-65
2022/10/04 06:15:23;;;;;;;0.00;0.00;;;17.20;88.40;;;;;;4093780;28;20058;-65
2022/10/04 06:18:45;;;;;;;14.05;1.30;;;17.20;88.20;;;;;;4085687;28;20054;-65
2022/10/04 06:21:28;;;;;;;2.03;1.85;;;17.20;88.00;;;;;;4081578;28;20081;-65
2022/10/04 06:24:16;;;;;;;2.63;0.65;;;17.20;87.90;;;;;;4093865;28;20794;-65
2022/10/04 06:27:01;;;;;;;0.00;0.00;;;17.20;87.80;;;;;;4063054;29;20055;-65
2022/10/04 06:29:48;;;;;;;0.00;0.00;;;17.10;87.70;;;;;;4062863;29;20071;-65
2022/10/04 06:32:59;;;;;;;0.00;0.00;;;17.10;88.50;;;;;;4062649;29;20135;-65
2022/10/04 06:35:58;;;;;;;0.00;0.00;;;17.10;87.90;;;;;;4076006;29;20054;-64
2022/10/04 06:39:01;;;;;;;0.00;0.00;;;17.10;87.70;;;;;;4078261;29;20058;-65
2022/10/04 06:42:19;;;;;;;0.00;0.00;;;17.10;87.60;;;;;;4058978;29;20084;-65
2022/10/04 06:45:20;;;;;;;0.00;0.00;;;17.10;87.70;;;;;;4055337;29;20047;-62
2022/10/04 06:48:30;;;;;;;0.28;0.28;;;17.10;87.60;;;;;;4062280;29;20063;-63
2022/10/04 06:51:20;;;;;;;0.00;0.00;;;17.10;87.60;;;;;;4062169;29;20080;-63
2022/10/04 06:54:20;;;;;;;0.00;0.00;;;17.10;87.60;;;;;;4063070;29;20070;-62
2022/10/04 06:57:30;;;;;;;0.10;0.10;;;17.00;87.40;;;;;;4062802;29;20083;-62
2022/10/04 07:00:16;;;;;;;0.00;0.00;;;17.00;87.40;;;;;;4062956;29;20051;-63
2022/10/04 07:03:01;;;;;;;0.45;0.45;;;17.00;87.40;;;;;;4072792;29;20175;-63
2022/10/04 07:05:48;;;;;;;0.47;0.47;;;17.00;87.30;;;;;;4068085;29;20099;-62
2022/10/04 07:08:37;;;;;;;0.00;0.00;;;17.00;87.30;;;;;;4046783;29;20060;-63
2022/10/04 07:11:23;;;;;;;0.00;0.00;;;17.00;87.30;;;;;;4047062;29;20123;-63
2022/10/04 07:14:10;;;;;;;0.65;0.65;;;17.00;87.10;;;;;;4047256;29;20493;-63
2022/10/04 07:16:56;;;;;;;0.00;0.00;;;17.00;87.30;;;;;;4056829;29;20652;-63
2022/10/04 07:19:42;;;;;;;0.05;0.05;;;17.00;87.30;;;;;;4062804;29;20059;-63
2022/10/04 07:22:29;;;;;;;0.00;0.00;;;17.00;87.40;;;;;;4061488;29;20106;-63
2022/10/04 07:25:16;;;;;;;0.15;0.15;;;17.00;87.30;;;;;;4070862;28;20058;-63
2022/10/04 07:31:05;;;;;;;1.85;1.48;;;17.00;88.40;;;;;;4081786;28;20557;-62
2022/10/04 07:33:49;;;;;;;0.13;0.13;;;17.10;87.60;;;;;;4093637;28;20070;-62
2022/10/04 07:36:39;;;;;;;0.30;0.30;;;17.10;87.60;;;;;;4093359;28;20199;-62
2022/10/04 07:39:26;;;;;;;1.25;0.75;;;17.10;87.60;;;;;;4093441;28;20182;-63
2022/10/04 07:42:19;;;;;;;0.22;0.22;;;17.10;87.50;;;;;;4093682;28;20053;-63
2022/10/04 07:45:12;;;;;;;0.00;0.00;;;17.10;87.50;;;;;;4093614;28;20059;-63
2022/10/04 07:48:04;;;;;;;0.00;0.00;;;17.10;87.50;;;;;;4077414;28;20066;-62
2022/10/04 07:50:56;;;;;;;0.00;0.00;;;17.10;87.60;;;;;;4094240;28;20066;-63
2022/10/04 07:53:43;;;;;;;0.05;0.05;;;17.10;87.60;;;;;;4096745;28;20062;-63
2022/10/04 07:56:34;;;;;;;0.47;0.47;;;17.20;87.60;;;;;;4096503;28;20070;-63
2022/10/04 07:59:33;;;;;;;0.00;0.00;;;17.20;87.50;;;;;;4096678;28;20074;-63
2022/10/04 08:02:26;;;;;;;2.80;1.67;;;17.30;87.40;;;;;;4096280;28;20062;-63
2022/10/04 08:05:21;;;;;;;0.00;0.00;;;17.30;87.30;;;;;;4105551;28;20104;-63
2022/10/04 08:08:21;;;;;;;0.00;0.00;;;17.30;87.00;;;;;;4080563;29;20175;-63
2022/10/04 08:11:19;;;;;;;1.85;1.65;;;17.30;87.00;;;;;;4080415;29;20058;-63
2022/10/04 08:14:08;;;;;;;0.00;0.00;;;17.30;86.90;;;;;;4079969;29;20563;-63
2022/10/04 08:17:00;;;;;;;0.15;0.15;;;17.30;86.80;;;;;;4090701;28;20062;-63
2022/10/04 08:19:53;;;;;;;0.00;0.00;;;17.30;86.70;;;;;;4095967;28;20089;-63
2022/10/04 08:22:50;;;;;;;0.00;0.00;;;17.30;86.60;;;;;;4096345;28;20117;-63
2022/10/04 08:25:41;;;;;;;0.10;0.10;;;17.30;86.60;;;;;;4079721;29;20050;-63
2022/10/04 08:31:40;;;;;;;;;;;17.30;86.70;;;;;;4097165;28;20066;-63
2022/10/04 08:34:33;;;;;;;0.63;0.63;;;17.20;86.60;;;;;;4097595;28;19956;-63
2022/10/04 08:37:28;;;;;;;0.00;0.00;;;17.20;86.70;;;;;;4111300;28;20062;-62
2022/10/04 08:40:49;;;;;;;0.40;0.40;;;17.20;86.90;;;;;;4087348;28;20102;-63
2022/10/04 08:44:04;;;;;;;0.55;0.55;;;17.20;87.00;;;;;;4095196;28;20138;-63
2022/10/04 08:47:19;;;;;;;0.10;0.10;;;17.20;88.00;;;;;;4095313;28;20186;-63
2022/10/04 08:50:30;;;;;;;0.05;0.05;;;17.20;87.20;;;;;;4094948;28;20069;-67
2022/10/04 08:53:50;;;;;;;0.00;0.00;;;17.30;87.20;;;;;;4095272;28;20058;-66
2022/10/04 08:56:51;;;;;;;0.00;0.00;;;17.30;87.30;;;;;;4094471;28;20054;-65
2022/10/04 09:00:04;;;;;;;0.00;0.00;;;17.30;88.20;;;;;;4094922;28;20114;-65
2022/10/04 09:03:18;;;;;;;0.10;0.10;;;17.40;87.30;;;;;;4078237;29;20051;-66
2022/10/04 09:06:23;;;;;;;0.68;0.68;;;17.40;87.10;;;;;;4088752;28;20050;-63
2022/10/04 09:09:41;;;;;;;0.60;0.60;;;17.50;86.90;;;;;;4095188;28;20054;-64
2022/10/04 09:12:48;;;;;;;0.15;0.15;;;17.50;86.80;;;;;;4086885;28;20128;-63
2022/10/04 09:15:51;;;;;;;0.08;0.08;;;17.60;86.60;;;;;;4095470;28;20411;-63
2022/10/04 09:18:50;;;;;;;0.03;0.03;;;17.60;86.50;;;;;;4095410;28;20058;-63
2022/10/04 09:22:00;;;;;;;0.00;0.00;;;17.70;86.30;;;;;;4093421;28;20133;-63
2022/10/04 09:25:11;;;;;;;2.55;0.60;;;17.70;86.20;;;;;;4079493;29;20059;-63
2022/10/04 09:28:24;;;;;;;0.43;0.35;;;17.70;85.90;;;;;;4079181;29;20058;-63
2022/10/04 09:31:36;;;;;;;0.00;0.00;;;17.80;85.80;;;;;;4089229;28;20057;-63
2022/10/04 09:34:27;;;;;;;;;;;17.80;85.60;;;;;;4097470;28;20185;-63
2022/10/04 09:37:50;;;;;;;0.10;0.10;;;17.80;85.40;;;;;;4110376;28;19933;-63
2022/10/04 09:41:00;;;;;;;0.00;0.00;;;17.80;85.20;;;;;;4091926;28;20062;-60
2022/10/04 09:46:23;;;;;;;0.00;0.00;;;17.80;85.30;;;;;;4164862;27;1260524;-62
2022/10/04 09:49:18;;;;;;;0.00;0.00;;;17.80;85.00;;;;;;4205091;28;20643;-63
2022/10/04 09:52:14;;;;;;;0.10;0.10;;;17.90;85.60;;;;;;4206227;28;20063;-63
2022/10/04 09:55:19;;;;;;;0.00;0.00;;;17.90;84.40;;;;;;4206320;28;20051;-63
2022/10/04 09:58:30;;;;;;;0.00;0.00;;;17.90;84.20;;;;;;4205721;28;20146;-63
2022/10/04 10:01:20;;;;;;;0.00;0.00;;;18.00;84.20;;;;;;4186757;28;20052;-63
2022/10/04 10:04:30;;;;;;;0.00;0.00;;;18.00;83.90;;;;;;4180825;28;20273;-64
2022/10/04 10:07:31;;;;;;;0.85;0.85;;;18.00;83.90;;;;;;4173128;28;20052;-64
2022/10/04 10:13:41;;;;;;;0.00;0.00;;;18.00;83.70;;;;;;4192109;28;20119;-63
2022/10/04 10:16:40;;;;;;;0.43;0.43;;;18.00;83.60;;;;;;4204940;28;20502;-68
2022/10/04 10:19:44;;;;;;;0.00;0.00;;;18.00;83.70;;;;;;4205641;28;20060;-67
2022/10/04 10:22:46;;;;;;;0.08;0.08;;;18.00;83.60;;;;;;4205091;28;20059;-67
2022/10/04 10:25:46;;;;;;;0.10;0.10;;;18.00;83.30;;;;;;4205820;28;20059;-67
2022/10/04 10:28:56;;;;;;;0.30;0.30;;;18.00;83.40;;;;;;4188218;28;20056;-66
2022/10/04 10:31:58;;;;;;;0.00;0.00;;;18.10;83.60;;;;;;4188410;28;20138;-67
2022/10/04 10:35:01;;;;;;;0.00;0.00;;;18.00;83.60;;;;;;4205210;28;20066;-66
2022/10/04 10:37:55;;;;;;;0.00;0.00;;;18.10;83.50;;;;;;4178888;28;20516;-66
2022/10/04 10:40:51;;;;;;;0.10;0.10;;;18.10;83.50;;;;;;4202014;28;20050;-67
2022/10/04 10:43:45;;;;;;;0.55;0.55;;;18.10;83.70;;;;;;4205412;28;20474;-66
2022/10/04 10:46:42;;;;;;;0.43;0.43;;;18.10;84.10;;;;;;4205057;28;20548;-68
2022/10/04 10:49:40;;;;;;;0.00;0.00;;;18.20;84.30;;;;;;4191205;28;20079;-68
2022/10/04 10:52:54;;;;;;;0.00;0.00;;;18.30;84.30;;;;;;4189869;28;20047;-68
2022/10/04 10:56:18;;;;;;;0.00;0.00;;;18.30;83.80;;;;;;4205434;28;20129;-67
2022/10/04 10:59:40;;;;;;;0.45;0.45;;;18.30;84.20;;;;;;4192732;28;20064;-67
2022/10/04 11:02:57;;;;;;;5.38;0.57;;;18.40;82.80;;;;;;4188745;28;20174;-67
2022/10/04 11:06:14;;;;;;;0.80;0.70;;;18.40;82.30;;;;;;4161380;28;20056;-67
2022/10/04 11:09:29;;;;;;;0.05;0.05;;;18.40;81.50;;;;;;4191639;28;20695;-67
2022/10/04 11:12:52;;;;;;;0.43;0.43;;;18.50;81.30;;;;;;4177299;28;20856;-67
2022/10/04 11:15:50;;;;;;;0.00;0.00;;;18.50;81.20;;;;;;4191027;28;20186;-67
2022/10/04 11:19:05;;;;;;;0.20;0.20;;;18.60;80.90;;;;;;4192957;28;20055;-67
2022/10/04 11:22:15;;;;;;;0.00;0.00;;;18.60;80.70;;;;;;4176979;28;20048;-76
2022/10/04 11:25:24;;;;;;;0.00;0.00;;;18.60;80.90;;;;;;4175881;28;20052;-65
2022/10/04 11:28:12;;;;;;;0.25;0.25;;;18.70;81.00;;;;;;4177060;28;20140;-66
2022/10/04 11:31:44;;;;;;;0.00;0.00;;;18.70;80.80;;;;;;4191213;28;20040;-67
2022/10/04 11:35:11;;;;;;;0.00;0.00;;;18.70;80.60;;;;;;4179979;28;20089;-67
2022/10/04 11:38:08;;;;;;;0.00;0.00;;;18.70;80.40;;;;;;4192433;28;20047;-66
2022/10/04 11:41:12;;;;;;;0.20;0.20;;;18.80;80.30;;;;;;4192462;28;20202;-67
2022/10/04 11:44:28;;;;;;;0.00;0.00;;;18.80;80.20;;;;;;4193190;28;20048;-67
2022/10/04 11:47:27;;;;;;;0.00;0.00;;;18.80;80.00;;;;;;4168255;28;20067;-66
2022/10/04 11:50:27;;;;;;;0.00;0.00;;;18.80;79.90;;;;;;4175682;28;20186;-75
2022/10/04 11:53:51;;;;;;;0.00;0.00;;;18.80;79.70;;;;;;4192520;28;20510;-74
2022/10/04 11:57:03;;;;;;;0.57;0.57;;;18.90;79.90;;;;;;4192961;28;20506;-70
2022/10/04 11:59:54;;;;;;;0.13;0.13;;;18.90;79.80;;;;;;4192946;28;20051;-71
2022/10/04 12:03:01;;;;;;;0.00;0.00;;;18.90;79.80;;;;;;4191917;28;20058;-69
2022/10/04 12:05:58;;;;;;;0.00;0.00;;;19.00;79.70;;;;;;4191899;28;20173;-70
2022/10/04 12:09:04;;;;;;;0.00;0.00;;;19.00;79.80;;;;;;4190827;28;20501;-71
2022/10/04 12:12:39;;;;;;;6.90;0.63;;;19.00;80.30;;;;;;4179217;28;20101;-70
2022/10/04 12:15:35;;;;;;;0.00;0.00;;;19.00;79.60;;;;;;4175239;28;20130;-72
2022/10/04 12:18:53;;;;;;;0.10;0.10;;;19.10;79.80;;;;;;4175925;28;20056;-72
2022/10/04 12:21:56;;;;;;;0.00;0.00;;;19.10;80.20;;;;;;4163430;28;20123;-72
2022/10/04 12:25:08;;;;;;;0.20;0.20;;;19.10;80.40;;;;;;4176236;28;20519;-70
2022/10/04 12:27:56;;;;;;;;;;;19.10;80.60;;;;;;4176747;28;20182;-68
2022/10/04 12:31:03;;;;;;;0.00;0.00;;;19.10;80.30;;;;;;4191752;28;20053;-68
2022/10/04 12:33:52;;;;;;;0.13;0.13;;;19.10;80.60;;;;;;4192257;28;20566;-68
2022/10/04 12:36:53;;;;;;;3.25;1.63;;;19.10;80.70;;;;;;4192526;28;20545;-68
2022/10/04 12:40:07;;;;;;;0.47;0.47;;;19.20;81.10;;;;;;4192267;28;20059;-68
2022/10/04 12:42:57;;;;;;;0.35;0.35;;;19.20;81.20;;;;;;4192040;28;20043;-68
2022/10/04 12:45:52;;;;;;;0.15;0.15;;;19.20;81.20;;;;;;4175494;28;20048;-68
2022/10/04 12:48:48;;;;;;;2.67;2.47;;;19.20;81.40;;;;;;4174831;28;20155;-68
2022/10/04 12:51:42;;;;;;;0.63;0.63;;;19.30;81.40;;;;;;4171686;28;20497;-69
2022/10/04 12:54:39;;;;;;;0.20;0.20;;;19.30;81.50;;;;;;4190920;28;20114;-68
2022/10/04 12:57:35;;;;;;;2.30;1.75;;;19.30;81.40;;;;;;4191282;28;20522;-68
2022/10/04 13:00:19;;;;;;;0.70;0.70;;;19.30;81.20;;;;;;4192323;28;20133;-68
2022/10/04 13:03:21;;;;;;;0.50;0.50;;;19.30;81.30;;;;;;4177349;28;20064;-68
2022/10/04 13:06:13;;;;;;;0.03;0.03;;;19.40;81.50;;;;;;4190142;28;20074;-68
2022/10/04 13:09:08;;;;;;;0.00;0.00;;;19.40;81.20;;;;;;4190015;28;20067;-68
2022/10/04 13:12:03;;;;;;;0.13;0.13;;;19.40;81.00;;;;;;4179396;28;20051;-69
2022/10/04 13:15:00;;;;;;;2.55;2.05;;;19.40;80.90;;;;;;4174572;28;20098;-68
2022/10/04 13:17:52;;;;;;;0.00;0.00;;;19.40;80.60;;;;;;4168479;28;20067;-68
2022/10/04 13:20:49;;;;;;;0.32;0.32;;;19.40;80.80;;;;;;4190307;28;20183;-68
2022/10/04 13:23:51;;;;;;;1.38;1.10;;;19.40;80.90;;;;;;4190787;28;20056;-69
2022/10/04 13:26:43;;;;;;;0.03;0.03;;;19.50;81.10;;;;;;4175223;28;20051;-68
2022/10/04 13:29:28;;;;;;;11.80;2.15;;;19.50;81.10;;;;;;4191821;28;20240;-68
2022/10/04 13:32:18;;;;;;;0.10;0.10;;;19.50;81.10;;;;;;4192031;28;20059;-68
2022/10/04 13:35:11;;;;;;;0.30;0.30;;;19.50;81.10;;;;;;4181371;28;20107;-68
2022/10/04 13:38:08;;;;;;;0.00;0.00;;;19.60;81.20;;;;;;4190848;28;20186;-69
2022/10/04 13:41:02;;;;;;;0.00;0.00;;;19.60;81.30;;;;;;4191771;28;20056;-69
2022/10/04 13:44:01;;;;;;;0.90;0.90;;;19.60;81.30;;;;;;4191867;28;20051;-68
2022/10/04 13:46:57;;;;;;;0.25;0.25;;;19.60;81.40;;;;;;4191185;28;20059;-65
2022/10/04 13:49:54;;;;;;;2.40;1.85;;;19.60;81.00;;;;;;4191997;28;20402;-65
2022/10/04 13:58:57;;;;;;;0.20;0.20;;;19.70;80.90;;;;;;4190492;28;20113;-64
2022/10/04 14:02:12;;;;;;;0.00;0.00;;;19.70;81.10;;;;;;4190451;28;20105;-67
2022/10/04 14:05:32;;;;;;;1.45;1.17;;;19.70;80.80;;;;;;4166777;28;20386;-68
2022/10/04 14:08:34;;;;;;;0.00;0.00;;;19.70;80.70;;;;;;4174563;28;20043;-68
2022/10/04 14:11:43;;;;;;;0.00;0.00;;;19.70;80.80;;;;;;4175026;28;20122;-70
2022/10/04 14:15:03;;;;;;;0.00;0.00;;;19.70;80.90;;;;;;4157257;28;20384;-68
2022/10/04 14:18:29;;;;;;;0.00;0.00;;;19.70;80.90;;;;;;4173338;28;20487;-70
2022/10/04 14:21:31;;;;;;;0.00;0.00;;;19.70;80.80;;;;;;4157970;28;20131;-68
2022/10/04 14:24:52;;;;;;;0.00;0.00;;;19.70;80.60;;;;;;4165988;28;20071;-67
2022/10/04 14:27:57;;;;;;;0.00;0.00;;;19.80;80.40;;;;;;4157581;28;20044;-65
2022/10/04 14:30:54;;;;;;;1.50;1.13;;;19.80;80.30;;;;;;4159026;28;20061;-65
2022/10/04 14:33:57;;;;;;;0.00;0.00;;;19.80;80.10;;;;;;4160618;28;20056;-65
2022/10/04 14:37:02;;;;;;;0.00;0.00;;;19.80;80.40;;;;;;4170016;28;20173;-65
2022/10/04 14:40:25;;;;;;;0.30;0.30;;;19.80;80.30;;;;;;4194018;28;20394;-65
2022/10/04 14:43:41;;;;;;;0.20;0.20;;;19.80;80.60;;;;;;4194082;28;20100;-65
2022/10/04 14:46:30;;;;;;;0.00;0.00;;;19.80;80.70;;;;;;4172265;28;20051;-65
2022/10/04 14:49:23;;;;;;;0.00;0.00;;;19.90;80.60;;;;;;4194762;28;20042;-65
2022/10/04 14:52:20;;;;;;;0.00;0.00;;;19.90;80.80;;;;;;4192393;28;20060;-65
2022/10/04 14:55:20;;;;;;;0.20;0.20;;;19.90;81.40;;;;;;4194151;28;20059;-65
2022/10/04 14:58:19;;;;;;;0.13;0.13;;;19.90;80.40;;;;;;4163448;28;20128;-65
2022/10/04 15:01:18;;;;;;;0.68;0.68;;;19.90;80.80;;;;;;4193356;28;20055;-65
2022/10/04 15:04:11;;;;;;;6.43;1.88;;;19.90;81.90;;;;;;4193160;28;20064;-65
2022/10/04 15:06:57;;;;;;;0.30;0.30;;;19.90;81.00;;;;;;4186319;28;20052;-65
2022/10/04 15:09:52;;;;;;;0.43;0.43;;;19.90;81.30;;;;;;4194398;28;20071;-65
2022/10/04 15:13:01;;;;;;;0.57;0.57;;;19.90;81.50;;;;;;4194084;28;20145;-66
2022/10/04 15:16:05;;;;;;;1.48;1.48;;;20.00;81.60;;;;;;4192996;28;20079;-65
2022/10/04 15:18:56;;;;;;;0.82;0.82;;;20.00;81.50;;;;;;4192821;28;20406;-65
2022/10/04 15:21:52;;;;;;;0.90;0.90;;;20.00;81.30;;;;;;4192979;28;20051;-64
2022/10/04 15:24:46;;;;;;;10.50;1.77;;;19.90;81.20;;;;;;4192167;28;20179;-65
2022/10/04 15:27:49;;;;;;;2.85;2.65;;;19.90;81.30;;;;;;4192796;28;20054;-64
2022/10/04 15:30:43;;;;;;;0.60;0.60;;;19.90;81.30;;;;;;4176228;28;20169;-65